Time;durP1;ratioP1;P1;durP2;ratioP2;P2;SDS_P1;SDS_P2;PMS_P1;PMS_P2;Temp;Humidity;BMP_temperature;BMP_pressure;BME280_temperature;BME280_humidity;BME280_pressure;Samples;Min_cycle;Max_cycle;Signal;HPM_P1;HPM_P2
2021/01/25 00:02:08;;;;;;;38.70;18.85;;;;;;;-1.35;95.82;99839.19;5039270;28;20049;-62
2021/01/25 00:04:42;;;;;;;35.22;19.88;;;;;;;-1.36;95.72;99840.13;5082149;22;20435;-61
2021/01/25 00:07:08;;;;;;;34.47;18.77;;;;;;;-1.31;95.93;99842.50;5038328;28;20057;-62
2021/01/25 00:09:34;;;;;;;31.90;18.52;;;;;;;-1.38;95.96;99838.50;5021242;28;20065;-62
2021/01/25 00:12:00;;;;;;;37.58;19.50;;;;;;;-1.41;96.18;99848.31;5036948;28;20094;-63
2021/01/25 00:14:26;;;;;;;32.70;18.13;;;;;;;-1.41;96.14;99839.56;5056809;28;20512;-63
2021/01/25 00:16:52;;;;;;;31.90;18.63;;;;;;;-1.44;96.30;99840.56;5057698;28;20048;-62
2021/01/25 00:19:18;;;;;;;35.08;19.73;;;;;;;-1.38;96.30;99838.50;5057597;28;20080;-64
2021/01/25 00:21:44;;;;;;;32.72;18.02;;;;;;;-1.33;96.03;99841.75;5058776;28;20477;-62
2021/01/25 00:24:10;;;;;;;36.08;19.25;;;;;;;-1.37;96.46;99848.13;5057120;28;20060;-61
2021/01/25 00:26:37;;;;;;;36.80;20.15;;;;;;;-1.44;96.27;99848.47;5056045;28;20057;-62
2021/01/25 00:29:03;;;;;;;37.10;19.45;;;;;;;-1.37;96.08;99846.38;5057593;28;20052;-64
2021/01/25 00:31:29;;;;;;;32.58;19.10;;;;;;;-1.43;96.56;99847.56;5054011;28;20075;-64
2021/01/25 00:33:55;;;;;;;36.85;20.63;;;;;;;-1.51;96.70;99846.28;5055138;28;20060;-62
2021/01/25 00:36:21;;;;;;;39.70;19.63;;;;;;;-1.52;96.29;99853.31;5055222;28;20053;-61
2021/01/25 00:38:48;;;;;;;33.92;19.42;;;;;;;-1.49;96.60;99847.88;5056324;28;20053;-64
2021/01/25 00:41:14;;;;;;;37.03;20.40;;;;;;;-1.53;96.19;99848.13;5058643;28;20058;-62
2021/01/25 00:43:40;;;;;;;38.88;21.58;;;;;;;-1.55;96.56;99853.50;5056704;28;20482;-62
2021/01/25 00:46:06;;;;;;;40.70;21.50;;;;;;;-1.50;96.80;99854.09;5057621;28;20063;-61
2021/01/25 00:48:32;;;;;;;38.25;20.67;;;;;;;-1.44;96.61;99853.75;5057441;28;20079;-61
2021/01/25 00:50:58;;;;;;;38.67;22.08;;;;;;;-1.49;96.41;99860.22;5055161;28;20052;-62
2021/01/25 00:53:24;;;;;;;38.92;20.17;;;;;;;-1.49;96.42;99850.50;5045226;28;20183;-63
2021/01/25 00:55:51;;;;;;;38.22;20.65;;;;;;;-1.49;96.49;99853.16;5057250;28;20048;-63
2021/01/25 00:58:16;;;;;;;32.50;19.13;;;;;;;-1.44;96.19;99852.91;5056943;28;20494;-63
2021/01/25 01:00:42;;;;;;;34.28;19.35;;;;;;;-1.46;96.04;99860.94;5056766;28;20060;-62
2021/01/25 01:03:08;;;;;;;32.03;19.42;;;;;;;-1.44;96.13;99864.31;5052391;28;20098;-61
2021/01/25 01:05:34;;;;;;;35.83;20.33;;;;;;;-1.51;96.13;99860.31;5055338;28;20421;-64
2021/01/25 01:08:00;;;;;;;32.70;18.63;;;;;;;-1.56;96.01;99867.63;5057276;28;20057;-63
2021/01/25 01:10:26;;;;;;;31.63;18.63;;;;;;;-1.61;96.11;99862.59;5055898;28;20059;-63
2021/01/25 01:12:53;;;;;;;32.53;18.35;;;;;;;-1.59;95.99;99868.66;5057116;28;20512;-62
2021/01/25 01:15:19;;;;;;;39.33;20.80;;;;;;;-1.69;96.36;99869.22;5056207;28;20622;-63
2021/01/25 01:17:44;;;;;;;35.63;19.35;;;;;;;-1.68;95.63;99863.00;5055258;28;20052;-63
2021/01/25 01:20:12;;;;;;;35.33;20.65;;;;;;;-1.71;96.18;99866.66;5056392;28;20061;-63
2021/01/25 01:22:38;;;;;;;32.28;20.00;;;;;;;-1.68;96.25;99873.56;5054084;28;20120;-62
2021/01/25 01:25:05;;;;;;;34.85;18.38;;;;;;;-1.69;96.06;99878.00;5052305;28;20048;-63
2021/01/25 01:27:31;;;;;;;33.42;18.52;;;;;;;-1.76;96.02;99876.63;5054241;28;20079;-61
2021/01/25 01:29:58;;;;;;;37.03;19.95;;;;;;;-1.89;96.13;99884.31;5057164;28;20500;-63
2021/01/25 01:32:24;;;;;;;39.58;20.63;;;;;;;-1.90;95.96;99889.69;5056154;28;20055;-62
2021/01/25 01:34:50;;;;;;;37.10;20.38;;;;;;;-1.93;96.45;99893.31;5057385;28;20045;-63
2021/01/25 01:37:16;;;;;;;39.03;21.25;;;;;;;-1.98;96.51;99898.00;5055920;28;20461;-62
2021/01/25 01:39:42;;;;;;;36.58;20.35;;;;;;;-2.02;96.21;99891.16;5054395;28;20071;-62
2021/01/25 01:42:15;;;;;;;36.75;20.52;;;;;;;-1.97;96.62;99897.06;5054824;28;20417;-62
2021/01/25 01:44:41;;;;;;;35.50;20.02;;;;;;;-1.93;96.56;99906.50;5054688;28;20045;-63
2021/01/25 01:47:09;;;;;;;37.85;20.40;;;;;;;-1.93;96.40;99898.59;5055629;28;20045;-63
2021/01/25 01:49:35;;;;;;;38.13;20.10;;;;;;;-1.94;96.29;99907.47;5046233;28;20749;-64
2021/01/25 01:52:01;;;;;;;38.38;20.30;;;;;;;-1.91;96.03;99902.03;5055291;28;20057;-63
2021/01/25 01:54:26;;;;;;;41.20;21.67;;;;;;;-1.92;96.11;99910.00;5053312;28;20045;-61
2021/01/25 01:56:52;;;;;;;35.15;20.52;;;;;;;-1.97;96.05;99907.63;5053353;28;20045;-63
2021/01/25 01:59:18;;;;;;;40.00;19.67;;;;;;;-1.87;96.28;99911.47;5055020;28;20528;-63
2021/01/25 02:01:44;;;;;;;37.97;19.67;;;;;;;-1.86;95.99;99915.81;5052886;28;20493;-62
2021/01/25 02:04:11;;;;;;;34.75;20.55;;;;;;;-1.86;96.12;99921.06;5056436;28;20072;-62
2021/01/25 02:06:37;;;;;;;32.03;18.77;;;;;;;-1.89;96.17;99915.13;5057502;28;20053;-62
2021/01/25 02:09:05;;;;;;;31.77;19.15;;;;;;;-1.98;95.85;99917.28;5054777;28;20052;-63
2021/01/25 02:11:33;;;;;;;35.38;20.63;;;;;;;-1.99;96.04;99912.09;5055601;28;20472;-63
2021/01/25 02:14:00;;;;;;;33.25;19.77;;;;;;;-1.95;95.90;99918.94;5052979;28;20069;-62
2021/01/25 02:16:26;;;;;;;39.83;21.23;;;;;;;-1.94;95.78;99915.38;5056741;28;20045;-62
2021/01/25 02:18:52;;;;;;;37.05;20.00;;;;;;;-1.97;96.27;99915.53;5054322;28;20494;-62
2021/01/25 02:21:21;;;;;;;37.47;20.77;;;;;;;-2.00;95.75;99926.25;5057312;28;20083;-62
2021/01/25 02:24:01;;;;;;;37.58;21.60;;;;;;;-2.07;95.87;99924.84;5052174;28;20076;-62
2021/01/25 02:26:50;;;;;;;41.10;21.65;;;;;;;-2.06;95.90;99926.53;5054788;28;20120;-62
2021/01/25 02:29:18;;;;;;;38.10;20.08;;;;;;;-2.20;96.31;99932.53;5050631;28;20131;-63
2021/01/25 02:31:45;;;;;;;37.53;20.33;;;;;;;-2.15;96.05;99925.22;5053667;28;20048;-62
2021/01/25 02:34:12;;;;;;;38.15;20.48;;;;;;;-2.18;95.98;99925.38;5053261;28;20047;-63
2021/01/25 02:36:39;;;;;;;34.40;19.80;;;;;;;-2.25;96.46;99934.53;5057773;28;20048;-63
2021/01/25 02:39:07;;;;;;;37.47;21.40;;;;;;;-2.22;95.95;99927.34;5055149;28;20056;-63
2021/01/25 02:41:35;;;;;;;38.85;21.45;;;;;;;-2.29;96.41;99933.84;5055061;28;20052;-63
2021/01/25 02:44:03;;;;;;;34.95;20.10;;;;;;;-2.24;96.52;99939.72;5052173;28;20068;-62
2021/01/25 02:46:31;;;;;;;41.90;21.27;;;;;;;-2.29;96.34;99942.59;5057066;28;20090;-65
2021/01/25 02:48:57;;;;;;;38.25;21.35;;;;;;;-2.36;96.39;99945.63;5053207;28;20045;-63
2021/01/25 02:51:23;;;;;;;38.92;21.30;;;;;;;-2.37;96.54;99944.78;5059227;28;20055;-63
2021/01/25 02:53:49;;;;;;;35.22;20.95;;;;;;;-2.32;96.29;99945.38;5055950;28;20076;-61
2021/01/25 02:56:16;;;;;;;41.95;22.25;;;;;;;-2.32;96.42;99944.53;5057304;28;20084;-63
2021/01/25 02:58:42;;;;;;;37.38;22.42;;;;;;;-2.37;96.22;99949.16;5055753;28;20454;-63
2021/01/25 03:01:08;;;;;;;37.45;20.40;;;;;;;-2.35;96.63;99947.31;5055918;28;20053;-61
2021/01/25 03:03:36;;;;;;;46.55;23.60;;;;;;;-2.39;96.33;99951.03;5057209;28;20490;-61
2021/01/25 03:06:02;;;;;;;52.92;26.20;;;;;;;-2.38;96.37;99947.47;5057043;28;20052;-64
2021/01/25 03:08:28;;;;;;;45.72;24.02;;;;;;;-2.33;96.43;99951.56;5059303;28;20051;-64
2021/01/25 03:10:55;;;;;;;44.70;23.55;;;;;;;-2.41;96.52;99953.75;5060435;28;20094;-64
2021/01/25 03:13:25;;;;;;;44.50;25.33;;;;;;;-2.40;96.66;99965.13;5055620;28;20060;-64
2021/01/25 03:18:21;;;;;;;58.13;28.45;;;;;;;-2.47;97.30;99957.53;5101536;22;21070;-62
2021/01/25 03:20:49;;;;;;;45.05;25.33;;;;;;;-2.57;97.54;99973.88;5088924;28;20093;-64
2021/01/25 03:23:15;;;;;;;52.47;26.40;;;;;;;-2.59;97.19;99965.19;5088815;28;20157;-62
2021/01/25 03:25:41;;;;;;;55.33;27.85;;;;;;;-2.60;97.45;99968.75;5087077;28;20056;-63
2021/01/25 03:28:06;;;;;;;53.35;25.55;;;;;;;-2.57;97.61;99969.44;5089651;28;20081;-63
2021/01/25 03:30:32;;;;;;;51.70;26.35;;;;;;;-2.57;97.35;99963.34;5089505;28;20052;-64
2021/01/25 03:32:58;;;;;;;51.58;26.25;;;;;;;-2.51;97.95;99955.97;5090137;28;20055;-63
2021/01/25 03:35:24;;;;;;;52.55;29.50;;;;;;;-2.45;97.52;99962.72;5087426;28;20079;-62
2021/01/25 03:37:51;;;;;;;56.10;30.02;;;;;;;-2.48;98.07;99957.63;5089977;28;20047;-63
2021/01/25 03:40:17;;;;;;;54.20;29.42;;;;;;;-2.54;97.79;99961.41;5088248;28;20051;-62
2021/01/25 03:42:43;;;;;;;53.45;29.05;;;;;;;-2.55;98.01;99964.94;5089659;28;20067;-63
2021/01/25 03:45:09;;;;;;;54.85;28.65;;;;;;;-2.50;98.08;99975.28;5084707;28;20049;-63
2021/01/25 03:47:35;;;;;;;64.47;28.83;;;;;;;-2.51;98.15;99977.06;5089605;28;20044;-63
2021/01/25 03:50:01;;;;;;;50.80;28.23;;;;;;;-2.49;98.30;99974.34;5079812;28;20056;-63
2021/01/25 03:52:27;;;;;;;54.92;28.25;;;;;;;-2.48;97.82;99981.31;5088116;28;20447;-63
2021/01/25 03:54:54;;;;;;;55.65;28.38;;;;;;;-2.49;98.14;99979.63;5087906;28;20044;-63
2021/01/25 03:57:20;;;;;;;54.88;27.45;;;;;;;-2.43;98.03;99978.47;5089143;28;20051;-63
2021/01/25 03:59:46;;;;;;;50.70;25.08;;;;;;;-2.43;98.09;99978.47;5089302;28;20121;-63
2021/01/25 04:02:13;;;;;;;48.10;26.40;;;;;;;-2.41;98.55;99977.47;5087884;28;20040;-63
2021/01/25 04:04:39;;;;;;;46.25;25.48;;;;;;;-2.43;98.21;99984.56;5087633;28;20149;-63
2021/01/25 04:07:05;;;;;;;45.83;25.33;;;;;;;-2.44;98.53;99989.91;5088425;28;20060;-63
2021/01/25 04:09:31;;;;;;;52.50;27.02;;;;;;;-2.50;98.43;99997.22;5088945;28;20044;-62
2021/01/25 04:11:57;;;;;;;52.75;27.77;;;;;;;-2.49;98.31;100000.69;5088895;28;20051;-63
2021/01/25 04:14:23;;;;;;;43.95;26.33;;;;;;;-2.43;98.06;99996.91;5086881;28;20047;-63
2021/01/25 04:16:49;;;;;;;50.67;26.20;;;;;;;-2.49;98.51;99998.94;5086869;28;20558;-64
2021/01/25 04:19:15;;;;;;;50.25;26.23;;;;;;;-2.49;98.39;100008.59;5089007;28;20059;-63
2021/01/25 04:21:41;;;;;;;46.38;25.13;;;;;;;-2.51;98.42;100006.03;5089608;28;20048;-63
2021/01/25 04:26:34;;;;;;;49.92;25.33;;;;;;;-2.53;98.02;100022.84;5100540;22;20043;-63
2021/01/25 04:29:00;;;;;;;47.42;25.90;;;;;;;-2.50;98.11;100018.28;5101184;28;20051;-63
2021/01/25 04:31:26;;;;;;;47.65;25.75;;;;;;;-2.53;97.92;100021.06;5108860;28;20035;-62
2021/01/25 04:33:52;;;;;;;50.92;28.13;;;;;;;-2.56;97.96;100026.50;5088850;28;20048;-62
2021/01/25 04:36:18;;;;;;;50.47;26.75;;;;;;;-2.56;98.15;100029.13;5099159;28;20569;-62
2021/01/25 04:38:44;;;;;;;50.67;27.42;;;;;;;-2.55;97.62;100027.34;5109597;28;20062;-63
2021/01/25 04:41:10;;;;;;;48.78;25.10;;;;;;;-2.65;97.96;100025.16;5110002;28;20047;-63
2021/01/25 04:43:36;;;;;;;47.53;25.70;;;;;;;-2.64;98.08;100031.25;5108137;28;20404;-63
2021/01/25 04:46:03;;;;;;;46.97;26.02;;;;;;;-2.74;97.63;100040.53;5107951;28;20048;-63
2021/01/25 04:48:30;;;;;;;49.30;27.80;;;;;;;-2.80;97.94;100035.53;5108535;28;20442;-62
2021/01/25 04:50:59;;;;;;;51.50;27.92;;;;;;;-2.88;98.17;100035.91;5107761;28;20059;-63
2021/01/25 04:53:26;;;;;;;50.33;27.20;;;;;;;-2.92;97.99;100032.53;5107419;28;20043;-61
2021/01/25 04:55:53;;;;;;;51.55;26.52;;;;;;;-3.04;97.96;100033.13;5096617;28;20375;-63
2021/01/25 04:58:19;;;;;;;53.03;27.08;;;;;;;-3.05;97.96;100044.56;5107355;28;20112;-62
2021/01/25 05:00:45;;;;;;;49.50;27.60;;;;;;;-3.04;97.96;100046.28;5108665;28;20051;-62
2021/01/25 05:03:12;;;;;;;54.45;27.02;;;;;;;-3.04;97.80;100049.75;5108071;28;20051;-63
2021/01/25 05:05:38;;;;;;;49.80;27.77;;;;;;;-3.02;98.04;100047.06;5106126;28;20055;-63
2021/01/25 05:08:04;;;;;;;54.83;27.40;;;;;;;-3.04;97.78;100047.13;5105942;28;20059;-63
2021/01/25 05:10:33;;;;;;;48.80;26.83;;;;;;;-3.08;97.89;100055.25;5108144;28;20108;-63
2021/01/25 05:12:59;;;;;;;47.88;27.30;;;;;;;-3.07;97.96;100049.91;5105123;28;20135;-63
2021/01/25 05:15:27;;;;;;;45.88;25.40;;;;;;;-3.00;97.65;100058.38;5107411;28;20047;-61
2021/01/25 05:17:55;;;;;;;48.22;26.85;;;;;;;-3.03;98.18;100059.38;5106865;28;20721;-63
2021/01/25 05:20:25;;;;;;;53.92;27.20;;;;;;;-3.19;97.91;100058.38;5106313;28;20051;-62
2021/01/25 05:22:51;;;;;;;50.60;28.17;;;;;;;-3.21;97.84;100061.06;5107657;28;20092;-62
2021/01/25 05:25:28;;;;;;;60.90;28.42;;;;;;;-3.18;97.88;100062.69;5105084;28;20134;-63
2021/01/25 05:27:58;;;;;;;57.15;29.60;;;;;;;-3.19;97.79;100064.47;5107529;28;20124;-62
2021/01/25 05:30:26;;;;;;;58.50;30.67;;;;;;;-3.26;97.72;100073.56;5103631;28;20044;-63
2021/01/25 05:32:53;;;;;;;54.92;28.40;;;;;;;-3.25;97.88;100072.66;5106134;28;20044;-63
2021/01/25 05:35:22;;;;;;;58.35;29.15;;;;;;;-3.30;97.81;100079.03;5107495;28;20058;-63
2021/01/25 05:37:53;;;;;;;52.28;27.92;;;;;;;-3.15;98.16;100082.75;5108133;28;20051;-62
2021/01/25 05:40:21;;;;;;;54.63;28.48;;;;;;;-3.03;97.90;100082.22;5106885;28;20063;-63
2021/01/25 05:42:47;;;;;;;51.42;26.42;;;;;;;-3.09;98.14;100085.09;5107053;28;20050;-62
2021/01/25 05:45:13;;;;;;;53.63;27.52;;;;;;;-3.26;97.73;100084.09;5104252;28;20055;-62
2021/01/25 05:47:43;;;;;;;54.38;27.77;;;;;;;-3.35;97.94;100092.38;5108045;28;20378;-63
2021/01/25 05:50:11;;;;;;;60.60;30.38;;;;;;;-3.39;98.11;100089.00;5099544;28;20056;-62
2021/01/25 05:52:42;;;;;;;59.03;30.90;;;;;;;-3.39;98.31;100098.69;5109438;28;20047;-63
2021/01/25 05:55:10;;;;;;;66.47;32.08;;;;;;;-3.32;97.85;100096.66;5106126;28;20492;-63
2021/01/25 05:57:36;;;;;;;57.10;30.63;;;;;;;-3.37;97.93;100097.72;5105955;28;20377;-63
2021/01/25 06:00:03;;;;;;;54.95;28.63;;;;;;;-3.46;98.10;100095.50;5108976;28;20138;-62
2021/01/25 06:02:29;;;;;;;51.85;27.50;;;;;;;-3.48;97.87;100102.56;5106818;28;20093;-63
2021/01/25 06:04:55;;;;;;;49.42;26.45;;;;;;;-3.50;98.03;100104.44;5106345;28;20067;-63
2021/01/25 06:07:22;;;;;;;46.47;25.63;;;;;;;-3.53;97.66;100113.28;5107124;28;20051;-62
2021/01/25 06:09:53;;;;;;;55.00;27.45;;;;;;;-3.58;97.88;100112.66;5108136;28;20048;-62
2021/01/25 06:12:26;;;;;;;48.78;25.90;;;;;;;-3.68;98.05;100121.84;5106384;28;20051;-63
2021/01/25 06:15:02;;;;;;;56.50;28.98;;;;;;;-3.65;98.19;100124.34;5105487;28;20043;-63
2021/01/25 06:17:33;;;;;;;54.65;30.20;;;;;;;-3.71;98.10;100124.56;5106094;28;20047;-63
2021/01/25 06:20:01;;;;;;;59.10;30.95;;;;;;;-3.76;98.06;100126.56;5106248;28;20106;-63
2021/01/25 06:22:26;;;;;;;60.67;30.35;;;;;;;-3.73;98.23;100119.38;5106333;28;20121;-64
2021/01/25 06:24:53;;;;;;;56.47;29.92;;;;;;;-3.66;98.05;100129.66;5109666;28;20472;-63
2021/01/25 06:27:25;;;;;;;57.78;29.92;;;;;;;-3.67;98.02;100128.78;5110435;28;20085;-62
2021/01/25 06:29:51;;;;;;;57.33;28.98;;;;;;;-3.78;98.03;100137.13;5110899;28;20062;-63
2021/01/25 06:32:17;;;;;;;55.80;30.33;;;;;;;-3.74;98.05;100137.84;5107724;28;20053;-63
2021/01/25 06:34:43;;;;;;;54.17;28.13;;;;;;;-3.73;97.93;100134.31;5110897;28;20067;-64
2021/01/25 06:37:10;;;;;;;58.10;27.58;;;;;;;-3.78;98.11;100139.78;5110557;28;20097;-64
2021/01/25 06:39:43;;;;;;;53.30;27.90;;;;;;;-3.84;97.98;100142.66;5112574;28;20056;-63
2021/01/25 06:42:15;;;;;;;53.20;28.23;;;;;;;-3.89;98.10;100155.13;5110432;28;20044;-64
2021/01/25 06:44:44;;;;;;;50.72;28.25;;;;;;;-3.87;98.08;100156.78;5109349;28;20126;-63
2021/01/25 06:47:14;;;;;;;51.45;29.13;;;;;;;-3.89;98.22;100157.75;5105854;28;20268;-63
2021/01/25 06:49:40;;;;;;;59.15;30.17;;;;;;;-3.89;98.05;100166.50;5112571;28;20261;-63
2021/01/25 06:52:09;;;;;;;54.05;29.42;;;;;;;-3.94;98.20;100157.94;5109062;28;20059;-64
2021/01/25 06:54:42;;;;;;;60.65;30.67;;;;;;;-3.99;98.15;100159.03;5110196;28;20066;-63
2021/01/25 06:57:08;;;;;;;66.05;33.70;;;;;;;-3.98;98.36;100166.84;5109921;28;20127;-63
2021/01/25 06:59:38;;;;;;;57.95;30.23;;;;;;;-4.00;98.52;100162.59;5109036;28;20044;-62
2021/01/25 07:02:08;;;;;;;62.13;31.73;;;;;;;-4.03;98.28;100163.56;5109963;28;20081;-63
2021/01/25 07:04:41;;;;;;;69.57;32.13;;;;;;;-3.99;98.53;100165.16;5111399;28;20130;-63
2021/01/25 07:07:07;;;;;;;63.88;31.17;;;;;;;-4.02;98.45;100162.63;5111268;28;20056;-62
2021/01/25 07:09:34;;;;;;;61.25;30.35;;;;;;;-3.99;98.33;100172.16;5109903;28;20074;-62
2021/01/25 07:12:02;;;;;;;58.50;29.23;;;;;;;-3.96;98.52;100167.66;5110534;28;20153;-63
2021/01/25 07:14:30;;;;;;;57.55;29.67;;;;;;;-4.05;98.44;100178.50;5108101;28;20073;-63
2021/01/25 07:16:57;;;;;;;59.83;31.67;;;;;;;-4.10;98.60;100183.13;5110219;28;20450;-63
2021/01/25 07:19:25;;;;;;;63.08;30.98;;;;;;;-4.16;98.42;100189.47;5109984;28;20047;-62
2021/01/25 07:21:53;;;;;;;56.17;29.08;;;;;;;-4.13;98.46;100197.22;5111687;28;20092;-64
2021/01/25 07:24:21;;;;;;;60.33;29.23;;;;;;;-4.12;98.53;100201.56;5108834;28;20495;-64
2021/01/25 07:29:17;;;;;;;53.95;27.25;;;;;;;-4.10;98.29;100209.41;5078827;22;20593;-65
2021/01/25 07:31:43;;;;;;;57.70;29.58;;;;;;;-4.14;98.44;100207.78;5055571;28;20040;-65
2021/01/25 07:34:09;;;;;;;62.03;32.05;;;;;;;-4.13;98.56;100209.50;5056734;28;20449;-64
2021/01/25 07:36:36;;;;;;;65.35;31.75;;;;;;;-4.06;98.33;100216.25;5047405;28;20106;-63
2021/01/25 07:39:05;;;;;;;61.17;31.90;;;;;;;-4.00;98.47;100216.00;5051075;28;20053;-64
2021/01/25 07:41:31;;;;;;;58.67;29.67;;;;;;;-4.01;98.53;100222.16;5054940;28;20087;-64
2021/01/25 07:43:57;;;;;;;65.53;31.65;;;;;;;-3.99;98.59;100228.25;5055700;28;20391;-65
2021/01/25 07:46:23;;;;;;;64.30;31.88;;;;;;;-4.04;98.36;100230.19;5057991;28;20040;-64
2021/01/25 07:48:50;;;;;;;61.47;29.92;;;;;;;-4.05;98.59;100238.97;5056731;28;20048;-64
2021/01/25 07:51:19;;;;;;;59.63;30.75;;;;;;;-4.04;98.59;100243.31;5050204;28;20049;-65
2021/01/25 07:53:46;;;;;;;57.97;30.27;;;;;;;-4.05;98.36;100244.22;5051992;28;20106;-65
2021/01/25 07:56:17;;;;;;;64.35;29.45;;;;;;;-4.01;98.27;100244.97;5058723;28;20489;-65
2021/01/25 07:58:43;;;;;;;57.75;29.95;;;;;;;-3.93;98.60;100249.03;5055595;28;20080;-64
2021/01/25 08:48:04;;;;;;;77.43;36.88;;;;;;;-3.32;98.71;100326.44;5024497;22;20282;-65
2021/01/25 08:50:30;;;;;;;75.97;35.45;;;;;;;-3.29;98.50;100328.97;4946389;28;20607;-66
2021/01/25 08:53:01;;;;;;;71.63;35.30;;;;;;;-3.22;98.58;100329.59;4951275;28;20593;-63
2021/01/25 08:55:35;;;;;;;81.63;39.10;;;;;;;-3.10;98.73;100339.59;4951653;28;20080;-63
2021/01/25 08:58:01;;;;;;;86.10;40.60;;;;;;;-3.00;98.91;100334.84;4947158;28;25173;-67
2021/01/25 09:00:35;;;;;;;87.07;39.50;;;;;;;-2.96;98.84;100335.56;4960911;28;20053;-64
2021/01/25 09:03:05;;;;;;;75.03;37.30;;;;;;;-2.88;99.15;100350.13;4952952;28;20664;-63
2021/01/25 09:05:31;;;;;;;75.93;36.17;;;;;;;-2.87;98.70;100350.97;4954822;28;20049;-64
2021/01/25 09:07:58;;;;;;;68.90;36.40;;;;;;;-2.84;98.65;100345.59;4952452;28;20856;-67
2021/01/25 09:10:25;;;;;;;64.38;34.47;;;;;;;-2.79;99.23;100350.69;4954587;28;20171;-68
2021/01/25 09:12:51;;;;;;;65.78;35.17;;;;;;;-2.75;99.36;100355.75;4953670;28;25888;-63
2021/01/25 09:15:17;;;;;;;75.85;36.90;;;;;;;-2.70;99.29;100355.56;4960869;28;20171;-65
2021/01/25 09:17:43;;;;;;;63.30;34.63;;;;;;;-2.60;99.27;100361.31;4960284;28;20661;-64
2021/01/25 09:20:11;;;;;;;69.00;36.83;;;;;;;-2.49;99.07;100361.69;4954636;28;20045;-64
2021/01/25 09:22:38;;;;;;;78.28;37.28;;;;;;;-2.47;99.11;100357.22;4960896;28;20445;-68
2021/01/25 09:25:05;;;;;;;77.85;40.50;;;;;;;-2.21;99.19;100356.09;4974493;28;20057;-68
2021/01/25 09:27:31;;;;;;;84.43;40.17;;;;;;;-2.12;99.33;100365.34;4961287;28;20199;-63
2021/01/25 09:29:57;;;;;;;82.40;40.08;;;;;;;-1.99;99.39;100377.09;4957741;28;20049;-64
2021/01/25 09:32:23;;;;;;;74.78;39.40;;;;;;;-1.84;99.52;100385.25;4956840;28;20163;-62
2021/01/25 09:34:48;;;;;;;74.15;38.88;;;;;;;-1.79;99.36;100385.91;4956765;28;20057;-63
2021/01/25 09:37:23;;;;;;;73.00;39.13;;;;;;;-1.68;99.56;100393.31;4957797;28;20056;-68
2021/01/25 09:39:49;;;;;;;71.13;37.85;;;;;;;-1.51;99.48;100387.28;4968508;28;20409;-63
2021/01/25 09:42:16;;;;;;;78.05;38.75;;;;;;;-1.43;99.63;100396.56;4952858;28;20057;-63
2021/01/25 09:44:42;;;;;;;81.20;40.08;;;;;;;-1.42;99.63;100400.91;4939332;28;20389;-63
2021/01/25 09:47:08;;;;;;;75.90;39.47;;;;;;;-1.31;99.86;100396.91;4940567;28;20096;-63
2021/01/25 09:49:34;;;;;;;72.18;37.10;;;;;;;-1.23;99.68;100402.69;4941861;28;20205;-62
2021/01/25 09:52:00;;;;;;;73.65;38.92;;;;;;;-1.10;99.77;100402.97;4942935;28;20065;-69
2021/01/25 09:54:27;;;;;;;72.60;38.05;;;;;;;-0.97;100.00;100404.09;4943167;28;20060;-63
2021/01/25 09:56:53;;;;;;;73.70;37.90;;;;;;;-0.88;99.86;100408.94;4944686;28;20167;-62
2021/01/25 09:59:19;;;;;;;84.95;41.50;;;;;;;-0.77;99.67;100408.41;4944972;28;20053;-63
2021/01/25 10:01:45;;;;;;;80.40;39.25;;;;;;;-0.68;99.90;100416.81;4948025;28;20126;-62
2021/01/25 10:04:11;;;;;;;70.00;37.70;;;;;;;-0.74;99.59;100425.91;4949233;28;20044;-63
2021/01/25 10:06:37;;;;;;;69.53;35.13;;;;;;;-0.72;100.00;100424.91;4945692;28;25535;-68
2021/01/25 10:09:04;;;;;;;79.07;36.70;;;;;;;-0.45;99.81;100427.13;4938836;28;20056;-65
2021/01/25 10:11:31;;;;;;;73.00;36.75;;;;;;;-0.43;99.89;100434.97;4947987;28;20063;-62
2021/01/25 10:13:57;;;;;;;71.75;37.42;;;;;;;-0.31;99.84;100439.66;4932538;28;20141;-62
2021/01/25 10:16:23;;;;;;;73.38;37.22;;;;;;;-0.10;99.88;100448.28;4949100;28;21021;-62
2021/01/25 10:18:49;;;;;;;70.93;34.92;;;;;;;-0.08;99.72;100446.41;4961473;28;21594;-61
2021/01/25 10:21:17;;;;;;;66.38;33.50;;;;;;;0.04;99.64;100452.88;4941930;28;20139;-67
2021/01/25 10:23:43;;;;;;;67.18;33.75;;;;;;;0.06;99.57;100458.94;4947536;28;20818;-63
2021/01/25 10:26:09;;;;;;;60.53;32.30;;;;;;;0.13;99.61;100460.34;4948391;28;20045;-62
2021/01/25 10:28:36;;;;;;;67.40;32.30;;;;;;;0.25;99.21;100457.97;4947994;28;20057;-62
2021/01/25 10:31:02;;;;;;;57.40;30.95;;;;;;;0.41;99.29;100464.19;4940959;28;20052;-61
2021/01/25 10:33:28;;;;;;;57.58;32.17;;;;;;;0.46;99.14;100464.81;4935867;28;20057;-62
2021/01/25 10:35:54;;;;;;;59.60;29.65;;;;;;;0.48;99.28;100464.72;4931467;28;20789;-67
2021/01/25 10:38:20;;;;;;;55.05;30.52;;;;;;;0.51;98.91;100472.50;4929397;28;20057;-64
2021/01/25 10:40:46;;;;;;;51.85;29.60;;;;;;;0.68;98.51;100469.81;4936083;28;20055;-61
2021/01/25 10:43:12;;;;;;;49.15;29.75;;;;;;;0.79;98.40;100471.03;4932714;28;20988;-62
2021/01/25 10:45:39;;;;;;;49.72;27.35;;;;;;;0.82;97.57;100468.22;4953568;28;20072;-62
2021/01/25 10:48:05;;;;;;;46.67;25.75;;;;;;;0.88;97.32;100473.16;4953022;28;20052;-61
2021/01/25 10:50:31;;;;;;;41.88;22.13;;;;;;;0.91;97.02;100477.47;4952925;28;20139;-66
2021/01/25 10:52:57;;;;;;;38.70;21.38;;;;;;;0.99;95.73;100476.09;4954213;28;20611;-65
2021/01/25 10:55:23;;;;;;;38.72;20.02;;;;;;;1.14;95.35;100468.25;4945384;28;20057;-60
2021/01/25 10:57:49;;;;;;;31.40;17.10;;;;;;;1.28;94.05;100473.63;4954755;28;20058;-62
2021/01/25 11:00:18;;;;;;;27.67;15.82;;;;;;;1.26;92.66;100480.81;4954544;28;20207;-62
2021/01/25 11:02:45;;;;;;;25.58;14.82;;;;;;;1.25;91.42;100486.19;4954197;28;20094;-62
2021/01/25 11:05:12;;;;;;;24.70;14.10;;;;;;;1.30;89.73;100484.16;4955254;28;20057;-66
2021/01/25 11:07:38;;;;;;;29.48;19.05;;;;;;;1.40;90.28;100480.91;4952554;28;20131;-65
2021/01/25 11:10:06;;;;;;;27.88;15.15;;;;;;;1.50;89.64;100485.66;4953348;28;20103;-62
2021/01/25 11:12:32;;;;;;;19.75;13.13;;;;;;;1.61;88.74;100493.03;4953477;28;20808;-62
2021/01/25 11:14:58;;;;;;;32.47;15.55;;;;;;;1.80;87.95;100496.31;4948632;28;20049;-62
2021/01/25 11:17:24;;;;;;;31.67;14.80;;;;;;;1.89;87.27;100493.13;4955799;28;20137;-62
2021/01/25 11:19:51;;;;;;;22.52;14.05;;;;;;;1.73;87.09;100490.50;4954644;28;20146;-67
2021/01/25 11:22:17;;;;;;;24.60;14.30;;;;;;;1.77;86.41;100498.28;4954264;28;20825;-66
2021/01/25 11:24:43;;;;;;;23.67;15.05;;;;;;;1.79;86.02;100496.41;4952385;28;20048;-61
2021/01/25 11:27:09;;;;;;;26.73;14.45;;;;;;;1.96;86.24;100498.06;4952160;28;20064;-62
2021/01/25 11:29:35;;;;;;;22.55;13.85;;;;;;;2.08;85.78;100502.69;4952224;28;20070;-61
2021/01/25 11:32:02;;;;;;;24.58;14.15;;;;;;;2.20;85.43;100506.41;4944409;28;20056;-63
2021/01/25 11:34:29;;;;;;;24.58;14.02;;;;;;;2.12;85.02;100506.00;4950978;28;20139;-66
2021/01/25 11:36:56;;;;;;;21.80;13.93;;;;;;;2.08;84.84;100498.22;4944015;28;20049;-64
2021/01/25 11:39:22;;;;;;;24.17;13.73;;;;;;;2.17;84.61;100503.94;4941326;28;20072;-63
2021/01/25 11:41:48;;;;;;;22.85;13.48;;;;;;;2.11;84.31;100518.44;4936908;28;22193;-64
2021/01/25 11:44:14;;;;;;;23.08;12.05;;;;;;;2.24;83.81;100510.59;4929632;28;20057;-63
2021/01/25 11:46:40;;;;;;;20.80;13.00;;;;;;;2.37;83.67;100508.91;4933591;28;20072;-63
2021/01/25 11:49:06;;;;;;;22.50;14.35;;;;;;;2.36;84.00;100517.81;4928915;28;20049;-67
2021/01/25 11:51:32;;;;;;;28.75;14.15;;;;;;;2.39;84.82;100514.97;4923884;28;20140;-65
2021/01/25 11:53:59;;;;;;;24.60;14.05;;;;;;;2.31;84.71;100509.25;4929172;28;20511;-63
2021/01/25 11:56:25;;;;;;;23.52;13.00;;;;;;;2.53;84.29;100521.25;4927985;28;20852;-63
2021/01/25 11:58:51;;;;;;;23.88;14.23;;;;;;;2.65;83.50;100517.88;4933622;28;20095;-63
2021/01/25 12:01:17;;;;;;;25.15;14.77;;;;;;;2.77;83.74;100522.44;4929683;28;20427;-63
2021/01/25 12:47:55;;;;;;;22.65;10.77;;;;;;;3.66;79.12;100515.06;5029939;22;20084;-63
2021/01/25 12:50:21;;;;;;;17.33;11.02;;;;;;;3.77;78.72;100514.38;4927950;28;20084;-63
2021/01/25 12:52:47;;;;;;;17.92;10.80;;;;;;;3.83;77.94;100512.16;4928763;28;20750;-64